createdAt,value
2023-05-24T00:00:13.866Z,8.33
2023-05-24T00:01:13.865Z,8.27
2023-05-24T00:02:14.236Z,8.18
2023-05-24T00:03:13.886Z,8.10
2023-05-24T00:04:13.863Z,8.08
2023-05-24T00:05:13.813Z,8.06
2023-05-24T00:06:13.801Z,8.01
2023-05-24T00:07:13.805Z,7.95
2023-05-24T00:08:13.805Z,7.98
2023-05-24T00:09:13.760Z,8.09
2023-05-24T00:10:13.760Z,8.13
2023-05-24T00:11:13.738Z,8.16
2023-05-24T00:12:13.769Z,8.16
2023-05-24T00:13:13.733Z,8.16
2023-05-24T00:14:13.724Z,8.16
2023-05-24T00:15:13.699Z,8.15
2023-05-24T00:16:13.731Z,8.09
2023-05-24T00:17:13.674Z,8.12
2023-05-24T00:18:13.700Z,8.18
2023-05-24T00:19:13.657Z,8.08
2023-05-24T00:20:13.679Z,7.98
2023-05-24T00:21:13.619Z,7.82
2023-05-24T00:22:13.636Z,7.67
2023-05-24T00:23:13.600Z,7.51
2023-05-24T00:24:13.628Z,7.45
2023-05-24T00:25:13.582Z,7.53
2023-05-24T00:26:13.595Z,7.48
2023-05-24T00:27:13.606Z,7.42
2023-05-24T00:28:13.569Z,7.35
2023-05-24T00:29:13.565Z,7.35
2023-05-24T00:30:13.549Z,7.43
2023-05-24T00:31:13.517Z,7.48
2023-05-24T00:32:13.683Z,7.57
2023-05-24T00:33:13.522Z,7.58
2023-05-24T00:34:13.523Z,7.61
2023-05-24T00:35:13.507Z,7.61
2023-05-24T00:36:13.487Z,7.70
2023-05-24T00:37:13.482Z,7.76
2023-05-24T00:38:13.487Z,7.82
2023-05-24T00:39:13.431Z,7.88
2023-05-24T00:40:13.500Z,7.85
2023-05-24T00:41:13.434Z,7.93
2023-05-24T00:42:13.433Z,7.87
2023-05-24T00:43:13.401Z,7.97
2023-05-24T00:44:13.439Z,7.91
2023-05-24T00:45:13.372Z,7.82
2023-05-24T00:46:13.452Z,7.82
2023-05-24T00:47:13.382Z,7.70
2023-05-24T00:48:13.369Z,7.70
2023-05-24T00:49:13.337Z,7.70
2023-05-24T00:50:13.353Z,7.70
2023-05-24T00:51:13.342Z,7.79
2023-05-24T00:52:13.345Z,7.73
2023-05-24T00:53:13.295Z,7.67
2023-05-24T00:54:13.309Z,7.57
2023-05-24T00:55:13.276Z,7.47
2023-05-24T00:56:13.291Z,7.47
2023-05-24T00:57:13.264Z,7.50
2023-05-24T00:58:13.269Z,7.60
2023-05-24T00:59:13.232Z,7.57
2023-05-24T01:00:13.246Z,7.51
2023-05-24T01:01:13.284Z,7.40
2023-05-24T01:02:13.260Z,7.42
2023-05-24T01:03:13.230Z,7.47
2023-05-24T01:04:13.209Z,7.40
2023-05-24T01:05:13.173Z,7.32
2023-05-24T01:06:13.195Z,7.21
2023-05-24T01:07:13.157Z,7.17
2023-05-24T01:08:13.181Z,7.05
2023-05-24T01:09:13.136Z,7.00
2023-05-24T01:10:13.164Z,6.99
2023-05-24T01:11:13.124Z,6.95
2023-05-24T01:12:13.140Z,6.92
2023-05-24T01:13:13.130Z,6.87
2023-05-24T01:14:13.129Z,6.82
2023-05-24T01:15:13.073Z,6.81
2023-05-24T01:16:13.136Z,6.81
2023-05-24T01:17:13.075Z,6.88
2023-05-24T01:18:13.066Z,6.95
2023-05-24T01:19:13.062Z,7.03
2023-05-24T01:20:13.095Z,7.00
2023-05-24T01:21:13.030Z,6.96
2023-05-24T01:22:13.051Z,6.99
2023-05-24T01:23:13.012Z,7.02
2023-05-24T01:24:13.082Z,7.02
2023-05-24T01:25:12.999Z,6.93
2023-05-24T01:26:13.023Z,6.85
2023-05-24T01:27:12.973Z,6.89
2023-05-24T01:28:12.997Z,6.88
2023-05-24T01:29:12.961Z,6.84
2023-05-24T01:30:12.997Z,6.77
2023-05-24T01:31:13.009Z,6.69
2023-05-24T01:32:12.940Z,6.70
2023-05-24T01:33:12.890Z,6.74
2023-05-24T01:34:12.912Z,6.87
2023-05-24T01:35:12.904Z,6.87
2023-05-24T01:36:12.879Z,6.82
2023-05-24T01:37:12.852Z,6.82
2023-05-24T01:38:12.851Z,6.74
2023-05-24T01:39:12.823Z,6.81
2023-05-24T01:40:12.847Z,6.82
2023-05-24T01:41:12.818Z,6.78
2023-05-24T01:42:12.821Z,6.78
2023-05-24T01:43:12.787Z,6.87
2023-05-24T01:44:12.785Z,6.84
2023-05-24T01:45:12.769Z,6.77
2023-05-24T01:46:12.791Z,6.72
2023-05-24T01:47:12.776Z,6.64
2023-05-24T01:48:12.756Z,6.64
2023-05-24T01:49:12.750Z,6.56
2023-05-24T01:50:12.755Z,6.54
2023-05-24T01:51:12.707Z,6.59
2023-05-24T01:52:12.763Z,6.66
2023-05-24T01:53:12.670Z,6.69
2023-05-24T01:54:12.681Z,6.69
2023-05-24T01:55:12.667Z,6.64
2023-05-24T01:56:12.675Z,6.60
2023-05-24T01:57:12.637Z,6.57
2023-05-24T01:58:12.670Z,6.56
2023-05-24T01:59:12.610Z,6.52
2023-05-24T02:00:12.649Z,6.49
2023-05-24T02:01:12.620Z,6.52
2023-05-24T02:02:12.663Z,6.60
2023-05-24T02:03:12.614Z,6.66
2023-05-24T02:04:12.588Z,6.70
2023-05-24T02:05:12.567Z,6.78
2023-05-24T02:06:12.557Z,6.79
2023-05-24T02:07:12.531Z,6.82
2023-05-24T02:08:12.566Z,6.89
2023-05-24T02:09:12.500Z,7.03
2023-05-24T02:10:12.532Z,7.13
2023-05-24T02:11:12.487Z,7.15
2023-05-24T02:12:12.505Z,7.17
2023-05-24T02:13:12.465Z,7.24
2023-05-24T02:14:12.493Z,7.33
2023-05-24T02:15:12.444Z,7.32
2023-05-24T02:16:12.484Z,7.25
2023-05-24T02:17:12.424Z,7.13
2023-05-24T02:18:12.435Z,7.11
2023-05-24T02:19:12.447Z,7.06
2023-05-24T02:20:12.451Z,7.10
2023-05-24T02:21:12.379Z,6.97
2023-05-24T02:22:12.399Z,7.02
2023-05-24T02:23:12.370Z,6.96
2023-05-24T02:24:12.392Z,6.82
2023-05-24T02:25:12.364Z,6.78
2023-05-24T02:26:12.355Z,6.74
2023-05-24T02:27:12.323Z,6.64
2023-05-24T02:28:12.341Z,6.66
2023-05-24T02:29:12.312Z,6.59
2023-05-24T02:30:12.341Z,6.64
2023-05-24T02:31:12.341Z,6.59
2023-05-24T02:32:12.317Z,6.52
2023-05-24T02:33:12.304Z,6.48
2023-05-24T02:34:12.264Z,6.41
2023-05-24T02:35:12.268Z,6.39
2023-05-24T02:36:12.275Z,6.41
2023-05-24T02:37:12.224Z,6.52
2023-05-24T02:38:12.256Z,6.52
2023-05-24T02:39:12.201Z,6.56
2023-05-24T02:40:12.217Z,6.51
2023-05-24T02:41:12.214Z,6.46
2023-05-24T02:42:12.197Z,6.41
2023-05-24T02:43:12.153Z,6.39
2023-05-24T02:44:12.187Z,6.41
2023-05-24T02:45:12.146Z,6.41
2023-05-24T02:46:12.254Z,6.38
2023-05-24T02:47:12.122Z,6.38
2023-05-24T02:48:12.129Z,6.49
2023-05-24T02:49:12.092Z,6.51
2023-05-24T02:50:12.120Z,6.49
2023-05-24T02:51:12.101Z,6.60
2023-05-24T02:52:12.119Z,6.57
2023-05-24T02:53:12.059Z,6.54
2023-05-24T02:54:12.092Z,6.59
2023-05-24T02:55:12.032Z,6.57
2023-05-24T02:56:12.043Z,6.57
2023-05-24T02:57:12.013Z,6.57
2023-05-24T02:58:12.023Z,6.54
2023-05-24T02:59:12.018Z,6.62
2023-05-24T03:00:12.012Z,6.62
2023-05-24T03:01:11.998Z,6.62
2023-05-24T03:02:11.981Z,6.70
2023-05-24T03:03:12.032Z,6.74
2023-05-24T03:04:11.972Z,6.77
2023-05-24T03:05:11.926Z,6.81
2023-05-24T03:06:11.939Z,6.81
2023-05-24T03:07:11.907Z,6.78
2023-05-24T03:08:11.898Z,6.87
2023-05-24T03:09:11.916Z,6.92
2023-05-24T03:10:14.329Z,6.84
2023-05-24T03:11:11.882Z,6.75
2023-05-24T03:12:11.855Z,6.72
2023-05-24T03:13:11.859Z,6.72
2023-05-24T03:14:11.877Z,6.78
2023-05-24T03:15:11.887Z,6.79
2023-05-24T03:16:11.848Z,6.74
2023-05-24T03:17:11.830Z,6.66
2023-05-24T03:18:11.795Z,6.66
2023-05-24T03:19:11.831Z,6.67
2023-05-24T03:20:11.835Z,6.75
2023-05-24T03:21:11.819Z,6.75
2023-05-24T03:22:11.760Z,6.79
2023-05-24T03:23:11.770Z,6.77
2023-05-24T03:24:11.730Z,6.70
2023-05-24T03:25:11.764Z,6.70
2023-05-24T03:26:11.711Z,6.63
2023-05-24T03:27:11.779Z,6.60
2023-05-24T03:28:11.701Z,6.56
2023-05-24T03:29:11.703Z,6.49
2023-05-24T03:30:11.686Z,6.46
2023-05-24T03:31:11.733Z,6.45
2023-05-24T03:32:11.667Z,6.35
2023-05-24T03:33:11.661Z,6.33
2023-05-24T03:34:11.623Z,6.33
2023-05-24T03:35:11.646Z,6.35
2023-05-24T03:36:11.632Z,6.28
2023-05-24T03:37:11.624Z,6.26
2023-05-24T03:38:11.613Z,6.35
2023-05-24T03:39:11.664Z,6.31
2023-05-24T03:40:11.640Z,6.33
2023-05-24T03:41:11.601Z,6.30
2023-05-24T03:42:11.580Z,6.27
2023-05-24T03:43:11.561Z,6.30
2023-05-24T03:44:11.538Z,6.38
2023-05-24T03:45:11.535Z,6.48
2023-05-24T03:46:11.557Z,6.49
2023-05-24T03:47:11.664Z,6.46
2023-05-24T03:48:11.493Z,6.41
2023-05-24T03:49:11.497Z,6.38
2023-05-24T03:50:11.477Z,6.35
2023-05-24T03:51:11.464Z,6.36
2023-05-24T03:52:11.491Z,6.33
2023-05-24T03:53:11.444Z,6.41
2023-05-24T03:54:11.445Z,6.44
2023-05-24T03:55:11.418Z,6.41
2023-05-24T03:56:11.695Z,6.49
2023-05-24T03:57:11.413Z,6.46
2023-05-24T03:58:11.436Z,6.42
2023-05-24T03:59:11.369Z,6.51
2023-05-24T04:00:11.380Z,6.56
2023-05-24T04:01:18.848Z,6.62
2023-05-24T04:02:11.421Z,6.74
2023-05-24T04:03:11.384Z,6.79
2023-05-24T04:04:11.429Z,6.82
2023-05-24T04:05:11.311Z,6.78
2023-05-24T04:06:11.316Z,6.75
2023-05-24T04:07:11.301Z,6.69
2023-05-24T04:08:11.321Z,6.64
2023-05-24T04:09:11.282Z,6.67
2023-05-24T04:10:11.299Z,6.64
2023-05-24T04:11:11.262Z,6.59
2023-05-24T04:12:11.257Z,6.54
2023-05-24T04:13:11.236Z,6.56
2023-05-24T04:14:11.234Z,6.67
2023-05-24T04:15:11.255Z,6.74
2023-05-24T04:16:11.224Z,6.67
2023-05-24T04:17:11.240Z,6.66
2023-05-24T04:18:11.301Z,6.63
2023-05-24T04:19:11.155Z,6.63
2023-05-24T04:20:11.203Z,6.64
2023-05-24T04:21:11.140Z,6.67
2023-05-24T04:22:11.144Z,6.63
2023-05-24T04:23:11.138Z,6.62
2023-05-24T04:24:11.143Z,6.62
2023-05-24T04:25:11.132Z,6.57
2023-05-24T04:26:11.141Z,6.57
2023-05-24T04:27:11.111Z,6.52
2023-05-24T04:28:11.111Z,6.49
2023-05-24T04:29:11.069Z,6.46
2023-05-24T04:30:11.220Z,6.45
2023-05-24T04:31:11.048Z,6.49
2023-05-24T04:32:11.056Z,6.51
2023-05-24T04:33:11.051Z,6.52
2023-05-24T04:34:11.026Z,6.51
2023-05-24T04:35:10.984Z,6.52
2023-05-24T04:36:11.010Z,6.59
2023-05-24T04:37:10.974Z,6.56
2023-05-24T04:38:11.007Z,6.57
2023-05-24T04:39:10.952Z,6.57
2023-05-24T04:40:10.976Z,6.59
2023-05-24T04:41:10.931Z,6.56
2023-05-24T04:42:10.950Z,6.56
2023-05-24T04:43:10.911Z,6.59
2023-05-24T04:44:10.939Z,6.63
2023-05-24T04:45:10.911Z,6.70
2023-05-24T04:46:10.967Z,6.77
2023-05-24T04:47:10.897Z,6.79
2023-05-24T04:48:10.885Z,6.84
2023-05-24T04:49:10.953Z,6.81
2023-05-24T04:50:10.892Z,6.77
2023-05-24T04:51:10.833Z,6.82
2023-05-24T04:52:10.848Z,6.85
2023-05-24T04:53:10.825Z,6.96
2023-05-24T04:54:10.836Z,6.89
2023-05-24T04:55:10.798Z,6.96
2023-05-24T04:56:10.929Z,7.02
2023-05-24T04:57:10.771Z,7.10
2023-05-24T04:58:10.881Z,7.18
2023-05-24T04:59:10.758Z,7.25
2023-05-24T05:00:10.795Z,7.33
2023-05-24T05:01:10.726Z,7.31
2023-05-24T05:02:10.844Z,7.36
2023-05-24T05:03:10.791Z,7.31
2023-05-24T05:04:10.824Z,7.29
2023-05-24T05:05:10.686Z,7.32
2023-05-24T05:06:10.698Z,7.36
2023-05-24T05:07:10.670Z,7.39
2023-05-24T05:08:10.687Z,7.39
2023-05-24T05:09:10.649Z,7.48
2023-05-24T05:10:10.658Z,7.45
2023-05-24T05:11:10.628Z,7.45
2023-05-24T05:12:10.642Z,7.58
2023-05-24T05:13:10.602Z,7.70
2023-05-24T05:14:10.647Z,7.77
2023-05-24T05:15:10.590Z,7.80
2023-05-24T05:16:10.625Z,7.85
2023-05-24T05:17:10.571Z,7.93
2023-05-24T05:18:10.625Z,8.06
2023-05-24T05:19:10.535Z,8.16
2023-05-24T05:20:10.622Z,8.24
2023-05-24T05:21:10.514Z,8.27
2023-05-24T05:22:10.535Z,8.31
2023-05-24T05:23:10.504Z,8.30
2023-05-24T05:24:10.516Z,8.23
2023-05-24T05:25:10.484Z,8.24
2023-05-24T05:26:10.521Z,8.20
2023-05-24T05:27:10.454Z,8.24
2023-05-24T05:28:10.467Z,8.24
2023-05-24T05:29:10.433Z,8.26
2023-05-24T05:30:10.446Z,8.23
2023-05-24T05:31:10.421Z,8.20
2023-05-24T05:32:10.495Z,8.16
2023-05-24T05:33:10.469Z,8.20
2023-05-24T05:34:10.423Z,8.27
2023-05-24T05:35:10.379Z,8.36
2023-05-24T05:36:10.391Z,8.44
2023-05-24T05:37:10.353Z,8.45
2023-05-24T05:38:10.386Z,8.38
2023-05-24T05:39:10.339Z,8.34
2023-05-24T05:40:10.353Z,8.28
2023-05-24T05:41:10.310Z,8.27
2023-05-24T05:42:10.319Z,8.30
2023-05-24T05:43:10.288Z,8.26
2023-05-24T05:44:10.322Z,8.36
2023-05-24T05:45:10.272Z,8.41
2023-05-24T05:46:10.297Z,8.49
2023-05-24T05:47:10.255Z,8.52
2023-05-24T05:48:10.383Z,8.48
2023-05-24T05:49:10.229Z,8.53
2023-05-24T05:50:10.292Z,8.48
2023-05-24T05:51:10.218Z,8.49
2023-05-24T05:52:10.250Z,8.63
2023-05-24T05:53:10.186Z,8.61
2023-05-24T05:54:10.192Z,8.58
2023-05-24T05:55:10.185Z,8.61
2023-05-24T05:56:10.197Z,8.67
2023-05-24T05:57:10.140Z,8.69
2023-05-24T05:58:10.157Z,8.76
2023-05-24T05:59:10.147Z,8.88
2023-05-24T06:00:10.133Z,8.97
2023-05-24T06:01:10.116Z,8.94
2023-05-24T06:02:10.199Z,8.84
2023-05-24T06:03:10.314Z,8.79
2023-05-24T06:04:10.207Z,8.87
2023-05-24T06:05:10.057Z,8.95
2023-05-24T06:06:10.069Z,9.10
2023-05-24T06:07:10.036Z,9.14
2023-05-24T06:08:10.091Z,9.18
2023-05-24T06:09:10.018Z,9.13
2023-05-24T06:10:10.085Z,9.08
2023-05-24T06:11:09.992Z,9.13
2023-05-24T06:12:10.015Z,9.21
2023-05-24T06:13:09.990Z,9.21
2023-05-24T06:14:10.012Z,9.26
2023-05-24T06:15:09.958Z,9.25
2023-05-24T06:16:10.069Z,9.25
2023-05-24T06:17:09.944Z,9.39
2023-05-24T06:18:09.953Z,9.48
2023-05-24T06:19:09.912Z,9.59
2023-05-24T06:20:09.970Z,9.59
2023-05-24T06:21:09.903Z,9.69
2023-05-24T06:22:09.913Z,9.80
2023-05-24T06:23:09.876Z,9.84
2023-05-24T06:24:09.876Z,9.98
2023-05-24T06:25:09.858Z,10.01
2023-05-24T06:26:09.901Z,9.99
2023-05-24T06:27:09.828Z,10.05
2023-05-24T06:28:09.835Z,10.07
2023-05-24T06:29:09.828Z,10.05
2023-05-24T06:30:09.856Z,9.98
2023-05-24T06:31:09.840Z,9.98
2023-05-24T06:32:09.839Z,9.86
2023-05-24T06:33:09.778Z,9.82
2023-05-24T06:34:09.774Z,9.89
2023-05-24T06:35:09.767Z,9.94
2023-05-24T06:36:09.756Z,10.05
2023-05-24T06:37:09.722Z,10.09
2023-05-24T06:38:09.916Z,10.19
2023-05-24T06:39:09.714Z,10.22
2023-05-24T06:40:09.912Z,10.20
2023-05-24T06:41:09.690Z,10.16
2023-05-24T06:42:09.708Z,10.22
2023-05-24T06:43:09.672Z,10.28
2023-05-24T06:44:09.720Z,10.26
2023-05-24T06:45:09.644Z,10.17
2023-05-24T06:46:09.649Z,10.09
2023-05-24T06:47:09.722Z,10.04
2023-05-24T06:48:09.796Z,10.10
2023-05-24T06:49:09.644Z,10.13
2023-05-24T06:50:09.657Z,10.15
2023-05-24T06:51:09.578Z,10.15
2023-05-24T06:52:09.592Z,10.05
2023-05-24T06:53:09.557Z,10.12
2023-05-24T06:54:09.573Z,10.28
2023-05-24T06:55:09.544Z,10.41
2023-05-24T06:56:09.571Z,10.54
2023-05-24T06:57:09.524Z,10.76
2023-05-24T06:58:09.529Z,10.89
2023-05-24T06:59:09.503Z,10.92
2023-05-24T07:00:09.504Z,10.78
2023-05-24T07:01:09.493Z,10.68
2023-05-24T07:02:09.537Z,10.41
2023-05-24T07:03:09.473Z,10.41
2023-05-24T07:04:09.482Z,10.42
2023-05-24T07:05:09.437Z,10.28
2023-05-24T07:06:09.448Z,10.28
2023-05-24T07:07:09.407Z,10.38
2023-05-24T07:08:09.443Z,10.41
2023-05-24T07:09:09.396Z,10.57
2023-05-24T07:10:09.412Z,10.68
2023-05-24T07:11:09.401Z,10.82
2023-05-24T07:12:09.524Z,11.00
2023-05-24T07:13:09.369Z,11.15
2023-05-24T07:14:09.393Z,11.23
2023-05-24T07:15:09.326Z,11.27
2023-05-24T07:16:09.366Z,11.33
2023-05-24T07:17:09.462Z,11.35
2023-05-24T07:18:09.422Z,11.23
2023-05-24T07:19:09.321Z,11.11
2023-05-24T07:20:09.364Z,11.15
2023-05-24T07:21:09.266Z,11.36
2023-05-24T07:22:09.319Z,11.66
2023-05-24T07:23:09.241Z,11.84
2023-05-24T07:24:09.264Z,11.97
2023-05-24T07:25:09.242Z,11.86
2023-05-24T07:26:09.228Z,11.90
2023-05-24T07:27:09.234Z,11.80
2023-05-24T07:28:09.198Z,11.70
2023-05-24T07:29:09.209Z,11.80
2023-05-24T07:30:19.742Z,11.88
2023-05-24T07:31:09.179Z,11.99
2023-05-24T07:32:09.217Z,12.02
2023-05-24T07:33:09.172Z,11.94
2023-05-24T07:34:09.125Z,11.66
2023-05-24T07:35:09.134Z,11.44
2023-05-24T07:36:09.133Z,11.41
2023-05-24T07:37:09.110Z,11.54
2023-05-24T07:38:09.092Z,11.65
2023-05-24T07:39:09.105Z,11.80
2023-05-24T07:40:09.062Z,11.99
2023-05-24T07:41:09.067Z,11.87
2023-05-24T07:42:09.047Z,11.73
2023-05-24T07:43:09.057Z,11.75
2023-05-24T07:44:09.045Z,11.91
2023-05-24T07:45:09.039Z,11.95
2023-05-24T07:46:09.049Z,11.83
2023-05-24T07:47:09.022Z,11.84
2023-05-24T07:48:09.026Z,11.70
2023-05-24T07:49:09.012Z,11.65
2023-05-24T07:50:08.988Z,11.41
2023-05-24T07:51:08.978Z,11.60
2023-05-24T07:52:08.931Z,11.69
2023-05-24T07:53:08.949Z,11.73
2023-05-24T07:54:08.910Z,11.91
2023-05-24T07:55:08.936Z,12.02
2023-05-24T07:56:08.920Z,11.95
2023-05-24T07:57:09.530Z,12.15
2023-05-24T07:58:08.896Z,12.29
2023-05-24T07:59:08.891Z,12.43
2023-05-24T08:00:08.852Z,12.54
2023-05-24T08:01:08.934Z,12.40
2023-05-24T08:02:08.859Z,12.31
2023-05-24T08:03:08.949Z,12.28
2023-05-24T08:04:08.966Z,12.28
2023-05-24T08:05:08.828Z,12.36
2023-05-24T08:06:08.791Z,12.24
2023-05-24T08:07:10.794Z,12.10
2023-05-24T08:08:08.808Z,12.17
2023-05-24T08:09:08.785Z,12.32
2023-05-24T08:10:08.750Z,12.42
2023-05-24T08:11:08.758Z,12.54
2023-05-24T08:12:08.758Z,12.61
2023-05-24T08:13:08.741Z,12.54
2023-05-24T08:14:08.736Z,12.43
2023-05-24T08:15:08.718Z,12.42
2023-05-24T08:16:08.779Z,12.46
2023-05-24T08:17:08.691Z,12.50
2023-05-24T08:18:08.679Z,12.64
2023-05-24T08:19:08.680Z,12.68
2023-05-24T08:20:08.734Z,12.76
2023-05-24T08:21:08.649Z,12.86
2023-05-24T08:22:08.629Z,12.82
2023-05-24T08:23:08.630Z,12.91
2023-05-24T08:24:09.616Z,12.90
2023-05-24T08:25:08.610Z,12.91
2023-05-24T08:26:08.594Z,12.97
2023-05-24T08:27:08.603Z,12.70
2023-05-24T08:28:08.691Z,12.72
2023-05-24T08:29:08.567Z,12.73
2023-05-24T08:30:08.627Z,12.83
2023-05-24T08:31:08.550Z,12.80
2023-05-24T08:32:08.558Z,12.78
2023-05-24T08:33:08.596Z,12.82
2023-05-24T08:34:08.496Z,12.86
2023-05-24T08:35:20.395Z,12.87
2023-05-24T08:36:08.480Z,12.64
2023-05-24T08:37:08.483Z,12.61
2023-05-24T08:38:08.473Z,12.57
2023-05-24T08:39:08.457Z,12.47
2023-05-24T08:40:08.418Z,12.40
2023-05-24T08:41:08.473Z,12.46
2023-05-24T08:42:10.161Z,12.55
2023-05-24T08:43:08.414Z,12.65
2023-05-24T08:44:08.420Z,12.72
2023-05-24T08:45:08.403Z,12.73
2023-05-24T08:46:08.414Z,12.79
2023-05-24T08:47:08.385Z,12.73
2023-05-24T08:48:08.433Z,12.67
2023-05-24T08:49:08.422Z,12.58
2023-05-24T08:50:08.360Z,12.35
2023-05-24T08:51:08.351Z,12.25
2023-05-24T08:52:08.344Z,12.25
2023-05-24T08:53:08.326Z,12.29
2023-05-24T08:54:08.285Z,12.35
2023-05-24T08:55:08.305Z,12.40
2023-05-24T08:56:08.286Z,12.43
2023-05-24T08:57:08.279Z,12.45
2023-05-24T08:58:08.256Z,12.37
2023-05-24T08:59:08.268Z,12.31
2023-05-24T09:00:08.230Z,12.31
2023-05-24T09:01:08.281Z,12.32
2023-05-24T09:02:08.308Z,12.31
2023-05-24T09:03:08.339Z,12.31
2023-05-24T09:04:08.233Z,12.28
2023-05-24T09:05:08.197Z,12.21
2023-05-24T09:06:08.155Z,12.13
2023-05-24T09:07:08.171Z,12.13
2023-05-24T09:08:08.161Z,12.22
2023-05-24T09:09:08.168Z,12.13
2023-05-24T09:10:08.165Z,12.04
2023-05-24T09:11:08.225Z,11.99
2023-05-24T09:12:08.094Z,12.09
2023-05-24T09:13:08.113Z,12.20
2023-05-24T09:14:08.125Z,12.25
2023-05-24T09:15:08.465Z,12.21
2023-05-24T09:16:08.124Z,12.22
2023-05-24T09:17:09.859Z,12.40
2023-05-24T09:18:11.037Z,12.61
2023-05-24T09:19:08.374Z,12.72
2023-05-24T09:20:13.743Z,12.83
2023-05-24T09:21:08.107Z,12.94
2023-05-24T09:22:08.032Z,13.00
2023-05-24T09:23:08.027Z,13.09
2023-05-24T09:24:07.964Z,13.12
2023-05-24T09:25:07.971Z,13.16
2023-05-24T09:26:07.975Z,13.04
2023-05-24T09:27:07.985Z,12.67
2023-05-24T09:28:07.924Z,12.36
2023-05-24T09:29:07.943Z,12.31
2023-05-24T09:30:07.903Z,12.36
2023-05-24T09:31:08.391Z,12.39
2023-05-24T09:32:07.931Z,12.49
2023-05-24T09:33:07.937Z,12.61
2023-05-24T09:34:07.853Z,12.67
2023-05-24T09:35:07.903Z,12.80
2023-05-24T09:36:07.843Z,12.83
2023-05-24T09:37:07.854Z,12.97
2023-05-24T09:38:07.835Z,13.05
2023-05-24T09:39:07.826Z,13.13
2023-05-24T09:40:07.813Z,13.28
2023-05-24T09:41:07.805Z,13.35
2023-05-24T09:42:07.794Z,13.37
2023-05-24T09:43:07.795Z,13.35
2023-05-24T09:44:07.799Z,13.27
2023-05-24T09:45:07.810Z,13.20
2023-05-24T09:46:07.753Z,13.15
2023-05-24T09:47:07.802Z,13.15
2023-05-24T09:48:07.720Z,13.16
2023-05-24T09:49:07.733Z,12.98
2023-05-24T09:50:07.717Z,12.82
2023-05-24T09:51:07.762Z,12.64
2023-05-24T09:52:07.774Z,12.54
2023-05-24T09:53:07.687Z,12.43
2023-05-24T09:54:07.645Z,12.47
2023-05-24T09:55:07.655Z,12.50
2023-05-24T09:56:07.652Z,12.53
2023-05-24T09:57:07.635Z,12.53
2023-05-24T09:58:07.615Z,12.50
2023-05-24T09:59:07.629Z,12.57
2023-05-24T10:00:07.584Z,12.58
2023-05-24T10:01:07.687Z,12.42
2023-05-24T10:02:07.597Z,12.36
2023-05-24T10:03:07.859Z,12.40
2023-05-24T10:04:09.870Z,12.43
2023-05-24T10:05:07.957Z,12.43
2023-05-24T10:06:07.552Z,12.40
2023-05-24T10:07:07.567Z,12.46
2023-05-24T10:08:07.514Z,12.47
2023-05-24T10:09:07.512Z,12.47
2023-05-24T10:10:07.815Z,12.55
2023-05-24T10:11:07.506Z,12.70
2023-05-24T10:12:07.464Z,12.82
2023-05-24T10:13:07.491Z,12.83
2023-05-24T10:14:07.497Z,12.83
2023-05-24T10:15:07.468Z,12.95
2023-05-24T10:16:07.434Z,13.03
2023-05-24T10:17:07.466Z,13.13
2023-05-24T10:18:08.545Z,13.18
2023-05-24T10:19:07.540Z,13.37
2023-05-24T10:20:07.516Z,13.57
2023-05-24T10:21:07.419Z,13.71
2023-05-24T10:22:07.361Z,13.72
2023-05-24T10:23:07.370Z,13.86
2023-05-24T10:24:09.068Z,13.83
2023-05-24T10:25:07.347Z,13.89
2023-05-24T10:26:07.338Z,14.18
2023-05-24T10:27:07.322Z,14.45
2023-05-24T10:28:07.381Z,14.70
2023-05-24T10:29:07.312Z,14.68
2023-05-24T10:30:09.436Z,14.88
2023-05-24T10:31:07.355Z,15.02
2023-05-24T10:32:07.293Z,15.33
2023-05-24T10:33:07.308Z,15.47
2023-05-24T10:34:08.946Z,15.51
2023-05-24T10:35:07.238Z,15.47
2023-05-24T10:36:09.442Z,15.47
2023-05-24T10:37:07.220Z,15.28
2023-05-24T10:38:07.203Z,15.31
2023-05-24T10:39:07.197Z,15.40
2023-05-24T10:40:07.175Z,15.42
2023-05-24T10:41:07.200Z,15.42
2023-05-24T10:42:09.587Z,15.29
2023-05-24T10:43:07.164Z,15.27
2023-05-24T10:44:09.492Z,15.11
2023-05-24T10:45:07.126Z,15.07
2023-05-24T10:46:07.127Z,14.92
2023-05-24T10:47:07.108Z,14.92
2023-05-24T10:48:07.120Z,14.86
2023-05-24T10:49:07.092Z,14.92
2023-05-24T10:50:07.092Z,14.92
2023-05-24T10:51:07.071Z,14.79
2023-05-24T10:52:07.070Z,14.84
2023-05-24T10:53:07.077Z,14.78
2023-05-24T10:54:08.980Z,14.63
2023-05-24T10:55:07.022Z,14.53
2023-05-24T10:56:07.016Z,14.54
2023-05-24T10:57:07.009Z,14.47
2023-05-24T10:58:06.968Z,14.53
2023-05-24T10:59:06.998Z,14.33
2023-05-24T11:00:09.052Z,14.08
2023-05-24T11:01:06.973Z,13.79
2023-05-24T11:02:06.988Z,13.56
2023-05-24T11:03:07.039Z,13.42
2023-05-24T11:04:06.903Z,13.33
2023-05-24T11:05:06.936Z,13.37
2023-05-24T11:06:06.929Z,13.33
2023-05-24T11:07:06.943Z,13.37
2023-05-24T11:08:06.917Z,13.23
2023-05-24T11:09:06.884Z,13.25
2023-05-24T11:10:06.857Z,13.38
2023-05-24T11:11:22.285Z,13.46
2023-05-24T11:12:06.826Z,13.52
2023-05-24T11:13:06.833Z,13.56
2023-05-24T11:14:06.817Z,13.62
2023-05-24T11:15:06.811Z,13.63
2023-05-24T11:16:06.823Z,13.63
2023-05-24T11:17:06.799Z,13.70
2023-05-24T11:18:06.799Z,13.75
2023-05-24T11:19:06.777Z,13.77
2023-05-24T11:20:06.791Z,13.79
2023-05-24T11:21:06.761Z,13.87
2023-05-24T11:22:06.717Z,13.90
2023-05-24T11:23:06.728Z,14.00
2023-05-24T11:24:06.710Z,14.03
2023-05-24T11:25:06.747Z,14.05
2023-05-24T11:26:06.697Z,14.17
2023-05-24T11:27:06.700Z,14.29
2023-05-24T11:28:06.693Z,14.35
2023-05-24T11:29:06.662Z,14.44
2023-05-24T11:30:06.635Z,14.53
2023-05-24T11:31:06.745Z,14.63
2023-05-24T11:32:06.692Z,14.73
2023-05-24T11:33:06.654Z,14.78
2023-05-24T11:34:06.596Z,14.92
2023-05-24T11:35:06.604Z,14.99
2023-05-24T11:36:06.568Z,15.14
2023-05-24T11:37:06.581Z,15.25
2023-05-24T11:38:06.566Z,15.31
2023-05-24T11:39:06.555Z,15.27
2023-05-24T11:40:06.549Z,15.37
2023-05-24T11:41:06.514Z,15.43
2023-05-24T11:42:06.576Z,15.43
2023-05-24T11:43:06.501Z,15.49
2023-05-24T11:44:06.518Z,15.57
2023-05-24T11:45:06.479Z,15.77
2023-05-24T11:46:06.574Z,15.82
2023-05-24T11:47:06.469Z,15.75
2023-05-24T11:48:06.553Z,15.72
2023-05-24T11:49:06.440Z,15.72
2023-05-24T11:50:06.469Z,15.47
2023-05-24T11:51:06.413Z,15.39
2023-05-24T11:52:06.450Z,15.18
2023-05-24T11:53:06.393Z,14.84
2023-05-24T11:54:06.412Z,14.69
2023-05-24T11:55:06.374Z,14.59
2023-05-24T11:56:06.410Z,14.55
2023-05-24T11:57:06.403Z,14.63
2023-05-24T11:58:06.365Z,14.72
2023-05-24T11:59:06.332Z,14.79
2023-05-24T12:00:06.366Z,14.69
2023-05-24T12:01:06.311Z,14.40
2023-05-24T12:02:06.466Z,14.32
2023-05-24T12:03:06.326Z,13.90
2023-05-24T12:04:06.425Z,13.53
2023-05-24T12:05:06.490Z,13.46
2023-05-24T12:06:06.273Z,13.54
2023-05-24T12:07:06.251Z,13.56
2023-05-24T12:08:06.266Z,13.72
2023-05-24T12:09:06.267Z,13.72
2023-05-24T12:10:06.244Z,13.86
2023-05-24T12:11:06.207Z,14.05
2023-05-24T12:12:06.216Z,14.18
2023-05-24T12:13:06.177Z,14.30
2023-05-24T12:14:06.217Z,14.40
2023-05-24T12:15:06.161Z,14.40
2023-05-24T12:16:06.226Z,14.53
2023-05-24T12:17:06.156Z,14.48
2023-05-24T12:18:06.184Z,14.43
2023-05-24T12:19:14.072Z,14.44
2023-05-24T12:20:06.359Z,14.47
2023-05-24T12:21:06.097Z,14.51
2023-05-24T12:22:06.386Z,14.55
2023-05-24T12:23:06.077Z,14.62
2023-05-24T12:24:06.087Z,14.68
2023-05-24T12:25:06.051Z,14.72
2023-05-24T12:26:06.081Z,14.66
2023-05-24T12:27:06.020Z,14.66
2023-05-24T12:28:06.068Z,14.68
2023-05-24T12:29:06.005Z,14.60
2023-05-24T12:30:06.022Z,14.51
2023-05-24T12:31:06.019Z,14.47
2023-05-24T12:32:06.030Z,14.30
2023-05-24T12:33:06.059Z,14.26
2023-05-24T12:34:05.972Z,14.20
2023-05-24T12:35:05.962Z,13.95
2023-05-24T12:36:05.956Z,13.81
2023-05-24T12:37:05.930Z,13.67
2023-05-24T12:38:05.967Z,13.57
2023-05-24T12:39:05.933Z,13.54
2023-05-24T12:40:05.916Z,13.59
2023-05-24T12:41:12.064Z,13.63
2023-05-24T12:42:05.902Z,13.71
2023-05-24T12:43:05.853Z,13.65
2023-05-24T12:44:05.900Z,13.60
2023-05-24T12:45:05.836Z,13.59
2023-05-24T12:46:05.867Z,13.50
2023-05-24T12:47:05.870Z,13.47
2023-05-24T12:48:05.902Z,13.50
2023-05-24T12:49:05.825Z,13.53
2023-05-24T12:50:05.832Z,13.50
2023-05-24T12:51:05.771Z,13.47
2023-05-24T12:52:06.410Z,13.44
2023-05-24T12:53:05.774Z,13.47
2023-05-24T12:54:05.772Z,13.52
2023-05-24T12:55:05.732Z,13.47
2023-05-24T12:56:05.964Z,13.46
2023-05-24T12:57:05.717Z,13.44
2023-05-24T12:58:05.730Z,13.38
2023-05-24T12:59:05.692Z,13.39
2023-05-24T13:00:05.701Z,13.37
2023-05-24T13:01:05.693Z,13.44
2023-05-24T13:02:05.735Z,13.56
2023-05-24T13:03:05.667Z,13.63
2023-05-24T13:04:05.670Z,13.71
2023-05-24T13:05:05.639Z,13.70